Santa Marta, Brazil
Current Conditions -  °F | °C
As of 2:00 PM on Friday 24 Oct 2014 (Local Time) from SBCM Reporting Station
Clear Clear  
Wind Chill: 82°   Ceiling: Unl
Heat Index: 85°   Visibility: 6mi
Dew Point: 68°   Wind: 6mph
Humidity: 62%   Direction: 210°SSW
Pressure: 29.91"   Gusts: NA
Location:  28.6°S, 48.82°W
Report Text: SBCM 241600Z 21005KT CAVOK 28/20 Q1013
Loading
Personal Weather Stations






























Interactive Weather Map
Tropical Storm Tracking
New forecast layout! Learn more

10-Day Weather Forecast

Advertisements
Track Severe Weather on mobile